sensor_id;sensor_type;location;lat;lon;timestamp;pressure;altitude;pressure_sealevel;temperature;humidity
9521;BME280;4798;41.574;23.734;2022-08-21T00:01:51;94837.09;;;22.21;100.00
9521;BME280;4798;41.574;23.734;2022-08-21T00:04:20;94889.50;;;21.54;100.00
9521;BME280;4798;41.574;23.734;2022-08-21T00:06:56;94896.88;;;20.98;100.00
9521;BME280;4798;41.574;23.734;2022-08-21T00:09:25;94900.97;;;20.92;100.00
9521;BME280;4798;41.574;23.734;2022-08-21T00:11:53;94874.69;;;21.48;100.00
9521;BME280;4798;41.574;23.734;2022-08-21T00:14:22;94874.09;;;21.70;100.00
9521;BME280;4798;41.574;23.734;2022-08-21T00:16:50;94878.97;;;21.49;100.00
9521;BME280;4798;41.574;23.734;2022-08-21T00:19:24;94872.88;;;21.68;100.00
9521;BME280;4798;41.574;23.734;2022-08-21T00:21:53;94866.22;;;21.81;100.00
9521;BME280;4798;41.574;23.734;2022-08-21T00:24:24;94867.50;;;21.68;100.00
9521;BME280;4798;41.574;23.734;2022-08-21T00:26:53;94884.16;;;21.73;100.00
9521;BME280;4798;41.574;23.734;2022-08-21T00:29:21;94875.00;;;22.09;100.00
9521;BME280;4798;41.574;23.734;2022-08-21T00:31:49;94874.41;;;21.84;100.00
9521;BME280;4798;41.574;23.734;2022-08-21T00:34:18;94866.22;;;21.96;100.00
9521;BME280;4798;41.574;23.734;2022-08-21T00:36:46;94856.28;;;22.16;100.00
9521;BME280;4798;41.574;23.734;2022-08-21T00:39:15;94856.34;;;22.20;100.00
9521;BME280;4798;41.574;23.734;2022-08-21T00:41:45;94853.47;;;21.62;100.00
9521;BME280;4798;41.574;23.734;2022-08-21T00:44:14;94850.88;;;21.19;100.00
9521;BME280;4798;41.574;23.734;2022-08-21T00:46:43;94843.69;;;20.95;100.00
9521;BME280;4798;41.574;23.734;2022-08-21T00:49:13;94813.47;;;21.48;100.00
9521;BME280;4798;41.574;23.734;2022-08-21T00:51:44;94827.31;;;21.63;100.00
9521;BME280;4798;41.574;23.734;2022-08-21T00:54:14;94832.22;;;21.76;100.00
9521;BME280;4798;41.574;23.734;2022-08-21T00:56:50;94832.97;;;22.08;100.00
9521;BME280;4798;41.574;23.734;2022-08-21T00:59:21;94820.13;;;22.21;100.00
9521;BME280;4798;41.574;23.734;2022-08-21T01:01:51;94813.84;;;21.82;100.00
9521;BME280;4798;41.574;23.734;2022-08-21T01:04:20;94756.53;;;21.34;100.00
9521;BME280;4798;41.574;23.734;2022-08-21T01:06:50;94801.59;;;21.69;100.00
9521;BME280;4798;41.574;23.734;2022-08-21T01:09:19;94809.53;;;22.12;100.00
9521;BME280;4798;41.574;23.734;2022-08-21T01:11:49;94798.78;;;21.96;100.00
9521;BME280;4798;41.574;23.734;2022-08-21T01:14:18;94803.28;;;22.08;100.00
9521;BME280;4798;41.574;23.734;2022-08-21T01:16:49;94814.13;;;21.92;100.00
9521;BME280;4798;41.574;23.734;2022-08-21T01:19:20;94791.50;;;22.16;100.00
9521;BME280;4798;41.574;23.734;2022-08-21T01:21:50;94787.06;;;22.27;100.00
9521;BME280;4798;41.574;23.734;2022-08-21T01:24:20;94785.53;;;22.26;100.00
9521;BME280;4798;41.574;23.734;2022-08-21T01:26:50;94781.97;;;22.41;100.00
9521;BME280;4798;41.574;23.734;2022-08-21T01:29:29;94784.16;;;21.82;100.00
9521;BME280;4798;41.574;23.734;2022-08-21T01:31:59;94794.53;;;21.80;100.00
9521;BME280;4798;41.574;23.734;2022-08-21T01:34:31;94777.97;;;21.97;100.00
9521;BME280;4798;41.574;23.734;2022-08-21T01:37:01;94775.59;;;22.11;100.00
9521;BME280;4798;41.574;23.734;2022-08-21T01:39:30;94776.22;;;22.24;100.00
9521;BME280;4798;41.574;23.734;2022-08-21T01:41:59;94775.72;;;22.18;100.00
9521;BME280;4798;41.574;23.734;2022-08-21T01:44:27;94767.06;;;22.28;100.00
9521;BME280;4798;41.574;23.734;2022-08-21T01:46:58;94720.44;;;22.12;100.00
9521;BME280;4798;41.574;23.734;2022-08-21T01:49:27;94777.41;;;22.45;100.00
9521;BME280;4798;41.574;23.734;2022-08-21T01:51:55;94771.28;;;22.29;100.00
9521;BME280;4798;41.574;23.734;2022-08-21T01:54:25;94777.63;;;22.18;100.00
9521;BME280;4798;41.574;23.734;2022-08-21T01:56:54;94760.25;;;21.80;100.00
9521;BME280;4798;41.574;23.734;2022-08-21T01:59:24;94771.16;;;22.22;100.00
9521;BME280;4798;41.574;23.734;2022-08-21T02:01:52;94770.72;;;22.39;100.00
9521;BME280;4798;41.574;23.734;2022-08-21T02:04:22;94773.53;;;22.24;100.00
9521;BME280;4798;41.574;23.734;2022-08-21T02:06:51;94774.38;;;22.28;100.00
9521;BME280;4798;41.574;23.734;2022-08-21T02:09:19;94775.00;;;22.40;100.00
9521;BME280;4798;41.574;23.734;2022-08-21T02:11:51;94767.03;;;22.47;100.00
9521;BME280;4798;41.574;23.734;2022-08-21T02:14:20;94777.41;;;22.45;100.00
9521;BME280;4798;41.574;23.734;2022-08-21T02:16:58;94790.41;;;22.59;100.00
9521;BME280;4798;41.574;23.734;2022-08-21T02:19:35;94795.59;;;22.67;100.00
9521;BME280;4798;41.574;23.734;2022-08-21T02:22:07;94792.56;;;22.31;100.00
9521;BME280;4798;41.574;23.734;2022-08-21T02:24:37;94778.13;;;22.04;100.00
9521;BME280;4798;41.574;23.734;2022-08-21T02:27:22;94796.75;;;22.28;100.00
9521;BME280;4798;41.574;23.734;2022-08-21T02:29:54;94798.94;;;22.03;100.00
9521;BME280;4798;41.574;23.734;2022-08-21T02:32:24;94807.09;;;21.88;100.00
9521;BME280;4798;41.574;23.734;2022-08-21T02:34:53;94808.63;;;21.89;100.00
9521;BME280;4798;41.574;23.734;2022-08-21T02:37:22;94804.13;;;21.93;100.00
9521;BME280;4798;41.574;23.734;2022-08-21T02:39:51;94804.03;;;21.74;100.00
9521;BME280;4798;41.574;23.734;2022-08-21T02:42:19;94810.31;;;21.78;100.00
9521;BME280;4798;41.574;23.734;2022-08-21T02:44:49;94815.44;;;21.83;100.00
9521;BME280;4798;41.574;23.734;2022-08-21T02:47:18;94815.97;;;21.73;100.00
9521;BME280;4798;41.574;23.734;2022-08-21T02:49:46;94813.34;;;21.61;100.00
9521;BME280;4798;41.574;23.734;2022-08-21T02:52:14;94805.34;;;21.64;100.00
9521;BME280;4798;41.574;23.734;2022-08-21T02:54:43;94811.50;;;21.80;100.00
9521;BME280;4798;41.574;23.734;2022-08-21T02:57:11;94824.00;;;21.53;100.00
9521;BME280;4798;41.574;23.734;2022-08-21T02:59:40;94815.47;;;21.51;100.00
9521;BME280;4798;41.574;23.734;2022-08-21T03:02:09;94813.28;;;21.73;100.00
9521;BME280;4798;41.574;23.734;2022-08-21T03:04:38;94814.25;;;21.65;100.00
9521;BME280;4798;41.574;23.734;2022-08-21T03:07:12;94808.28;;;21.40;100.00
9521;BME280;4798;41.574;23.734;2022-08-21T03:09:42;94807.97;;;21.61;100.00
9521;BME280;4798;41.574;23.734;2022-08-21T03:12:21;94805.81;;;21.50;100.00
9521;BME280;4798;41.574;23.734;2022-08-21T03:14:49;94816.31;;;21.56;100.00
9521;BME280;4798;41.574;23.734;2022-08-21T03:17:19;94826.63;;;21.85;100.00
9521;BME280;4798;41.574;23.734;2022-08-21T03:19:56;94828.19;;;22.01;100.00
9521;BME280;4798;41.574;23.734;2022-08-21T03:22:25;94821.16;;;21.97;100.00
9521;BME280;4798;41.574;23.734;2022-08-21T03:24:56;94817.75;;;22.00;100.00
9521;BME280;4798;41.574;23.734;2022-08-21T03:27:26;94804.34;;;22.42;100.00
9521;BME280;4798;41.574;23.734;2022-08-21T03:29:56;94819.47;;;22.27;100.00
9521;BME280;4798;41.574;23.734;2022-08-21T03:32:27;94824.22;;;22.14;100.00
9521;BME280;4798;41.574;23.734;2022-08-21T03:34:55;94831.53;;;22.14;100.00
9521;BME280;4798;41.574;23.734;2022-08-21T03:37:24;94834.66;;;22.54;100.00
9521;BME280;4798;41.574;23.734;2022-08-21T03:39:53;94783.59;;;22.46;100.00
9521;BME280;4798;41.574;23.734;2022-08-21T03:42:21;94821.41;;;22.46;100.00
9521;BME280;4798;41.574;23.734;2022-08-21T03:44:50;94818.06;;;22.33;100.00
9521;BME280;4798;41.574;23.734;2022-08-21T03:47:18;94812.63;;;22.14;100.00
9521;BME280;4798;41.574;23.734;2022-08-21T03:49:50;94819.19;;;22.32;100.00
9521;BME280;4798;41.574;23.734;2022-08-21T03:52:19;94829.25;;;21.81;100.00
9521;BME280;4798;41.574;23.734;2022-08-21T03:54:48;94818.56;;;22.39;100.00
9521;BME280;4798;41.574;23.734;2022-08-21T03:57:17;94815.66;;;22.28;100.00
9521;BME280;4798;41.574;23.734;2022-08-21T03:59:45;94818.03;;;22.52;100.00
9521;BME280;4798;41.574;23.734;2022-08-21T04:02:16;94810.09;;;22.79;100.00
9521;BME280;4798;41.574;23.734;2022-08-21T04:04:45;94805.13;;;22.42;100.00
9521;BME280;4798;41.574;23.734;2022-08-21T04:07:15;94815.19;;;21.57;100.00
9521;BME280;4798;41.574;23.734;2022-08-21T04:09:44;94812.19;;;21.11;100.00
9521;BME280;4798;41.574;23.734;2022-08-21T04:12:13;94797.41;;;21.71;100.00
9521;BME280;4798;41.574;23.734;2022-08-21T04:14:41;94807.41;;;21.71;100.00
9521;BME280;4798;41.574;23.734;2022-08-21T04:17:10;94821.50;;;21.45;100.00
9521;BME280;4798;41.574;23.734;2022-08-21T04:19:38;94826.38;;;21.39;100.00
9521;BME280;4798;41.574;23.734;2022-08-21T04:22:06;94819.75;;;22.03;100.00
9521;BME280;4798;41.574;23.734;2022-08-21T04:24:36;94816.28;;;21.21;100.00
9521;BME280;4798;41.574;23.734;2022-08-21T04:27:05;94816.16;;;21.48;100.00
9521;BME280;4798;41.574;23.734;2022-08-21T04:29:33;94833.38;;;20.97;100.00
9521;BME280;4798;41.574;23.734;2022-08-21T04:32:06;94826.91;;;20.86;100.00
9521;BME280;4798;41.574;23.734;2022-08-21T04:34:34;94844.28;;;20.88;100.00
9521;BME280;4798;41.574;23.734;2022-08-21T04:37:03;94832.72;;;21.47;100.00
9521;BME280;4798;41.574;23.734;2022-08-21T04:39:32;94821.91;;;21.63;100.00
9521;BME280;4798;41.574;23.734;2022-08-21T04:42:01;94821.25;;;21.85;100.00
9521;BME280;4798;41.574;23.734;2022-08-21T04:44:30;94820.34;;;21.96;100.00
9521;BME280;4798;41.574;23.734;2022-08-21T04:46:58;94808.16;;;21.68;100.00
9521;BME280;4798;41.574;23.734;2022-08-21T04:49:27;94814.91;;;21.77;100.00
9521;BME280;4798;41.574;23.734;2022-08-21T04:51:55;94822.63;;;21.79;100.00
9521;BME280;4798;41.574;23.734;2022-08-21T04:54:24;94824.75;;;21.85;100.00
9521;BME280;4798;41.574;23.734;2022-08-21T04:56:56;94827.00;;;22.18;100.00
9521;BME280;4798;41.574;23.734;2022-08-21T04:59:31;94826.00;;;22.07;100.00
9521;BME280;4798;41.574;23.734;2022-08-21T05:02:00;94834.44;;;21.39;100.00
9521;BME280;4798;41.574;23.734;2022-08-21T05:04:31;94821.63;;;21.68;100.00
9521;BME280;4798;41.574;23.734;2022-08-21T05:07:03;94761.03;;;21.46;100.00
9521;BME280;4798;41.574;23.734;2022-08-21T05:09:33;94827.09;;;21.56;100.00
9521;BME280;4798;41.574;23.734;2022-08-21T05:12:02;94824.09;;;21.41;100.00
9521;BME280;4798;41.574;23.734;2022-08-21T05:14:33;94829.63;;;21.64;100.00
9521;BME280;4798;41.574;23.734;2022-08-21T05:17:01;94825.53;;;21.70;100.00
9521;BME280;4798;41.574;23.734;2022-08-21T05:19:30;94829.44;;;21.88;100.00
9521;BME280;4798;41.574;23.734;2022-08-21T05:21:58;94822.72;;;21.98;100.00
9521;BME280;4798;41.574;23.734;2022-08-21T05:24:27;94828.72;;;21.91;100.00
9521;BME280;4798;41.574;23.734;2022-08-21T05:26:56;94821.47;;;22.30;100.00
9521;BME280;4798;41.574;23.734;2022-08-21T05:29:24;94824.34;;;22.02;100.00
9521;BME280;4798;41.574;23.734;2022-08-21T05:31:56;94827.47;;;21.70;100.00
9521;BME280;4798;41.574;23.734;2022-08-21T05:34:24;94826.81;;;21.92;100.00
9521;BME280;4798;41.574;23.734;2022-08-21T05:36:53;94814.56;;;22.13;100.00
9521;BME280;4798;41.574;23.734;2022-08-21T05:39:21;94806.09;;;22.34;100.00
9521;BME280;4798;41.574;23.734;2022-08-21T05:41:50;94814.38;;;22.41;100.00
9521;BME280;4798;41.574;23.734;2022-08-21T05:44:18;94781.69;;;22.08;100.00
9521;BME280;4798;41.574;23.734;2022-08-21T05:46:48;94814.63;;;22.55;100.00
9521;BME280;4798;41.574;23.734;2022-08-21T05:49:18;94816.91;;;22.53;100.00
9521;BME280;4798;41.574;23.734;2022-08-21T05:51:46;94818.78;;;22.11;100.00
9521;BME280;4798;41.574;23.734;2022-08-21T05:54:15;94817.94;;;22.26;100.00
9521;BME280;4798;41.574;23.734;2022-08-21T05:56:43;94769.38;;;22.30;100.00
9521;BME280;4798;41.574;23.734;2022-08-21T05:59:12;94823.81;;;22.32;100.00
9521;BME280;4798;41.574;23.734;2022-08-21T06:01:40;94824.66;;;22.55;100.00
9521;BME280;4798;41.574;23.734;2022-08-21T06:04:09;94822.69;;;22.71;100.00
9521;BME280;4798;41.574;23.734;2022-08-21T06:06:39;94821.19;;;22.73;100.00
9521;BME280;4798;41.574;23.734;2022-08-21T06:09:07;94828.16;;;22.74;100.00
9521;BME280;4798;41.574;23.734;2022-08-21T06:11:36;94821.41;;;22.84;100.00
9521;BME280;4798;41.574;23.734;2022-08-21T06:14:04;94816.78;;;23.30;100.00
9521;BME280;4798;41.574;23.734;2022-08-21T06:16:33;94811.31;;;23.26;100.00
9521;BME280;4798;41.574;23.734;2022-08-21T06:19:01;94812.09;;;23.27;100.00
9521;BME280;4798;41.574;23.734;2022-08-21T06:21:30;94814.41;;;23.48;100.00
9521;BME280;4798;41.574;23.734;2022-08-21T06:24:00;94808.78;;;22.92;100.00
9521;BME280;4798;41.574;23.734;2022-08-21T06:26:28;94813.53;;;23.21;100.00
9521;BME280;4798;41.574;23.734;2022-08-21T06:28:57;94804.09;;;23.34;100.00
9521;BME280;4798;41.574;23.734;2022-08-21T06:31:27;94796.34;;;23.55;100.00
9521;BME280;4798;41.574;23.734;2022-08-21T06:33:56;94788.00;;;23.18;100.00
9521;BME280;4798;41.574;23.734;2022-08-21T06:36:24;94811.50;;;22.92;100.00
9521;BME280;4798;41.574;23.734;2022-08-21T06:38:53;94809.50;;;23.34;100.00
9521;BME280;4798;41.574;23.734;2022-08-21T06:41:25;94800.84;;;23.70;100.00
9521;BME280;4798;41.574;23.734;2022-08-21T06:43:54;94800.41;;;23.68;100.00
9521;BME280;4798;41.574;23.734;2022-08-21T06:46:24;94799.75;;;23.75;100.00
9521;BME280;4798;41.574;23.734;2022-08-21T06:48:53;94800.41;;;23.94;100.00
9521;BME280;4798;41.574;23.734;2022-08-21T06:51:22;94801.63;;;23.48;100.00
9521;BME280;4798;41.574;23.734;2022-08-21T06:53:52;94806.91;;;23.38;100.00
9521;BME280;4798;41.574;23.734;2022-08-21T06:56:21;94808.22;;;23.73;100.00
9521;BME280;4798;41.574;23.734;2022-08-21T06:58:51;94808.25;;;23.77;100.00
9521;BME280;4798;41.574;23.734;2022-08-21T07:01:20;94806.50;;;22.94;100.00
9521;BME280;4798;41.574;23.734;2022-08-21T07:03:50;94804.00;;;23.50;100.00
9521;BME280;4798;41.574;23.734;2022-08-21T07:06:19;94806.84;;;23.86;100.00
9521;BME280;4798;41.574;23.734;2022-08-21T07:08:47;94807.28;;;24.15;100.00
9521;BME280;4798;41.574;23.734;2022-08-21T07:11:19;94802.59;;;24.12;100.00
9521;BME280;4798;41.574;23.734;2022-08-21T07:13:48;94811.13;;;24.14;100.00
9521;BME280;4798;41.574;23.734;2022-08-21T07:16:20;94799.69;;;24.01;100.00
9521;BME280;4798;41.574;23.734;2022-08-21T07:18:48;94777.94;;;24.20;100.00
9521;BME280;4798;41.574;23.734;2022-08-21T07:21:17;94793.81;;;24.22;100.00
9521;BME280;4798;41.574;23.734;2022-08-21T07:23:51;94758.13;;;23.86;100.00
9521;BME280;4798;41.574;23.734;2022-08-21T07:26:22;94786.03;;;23.90;100.00
9521;BME280;4798;41.574;23.734;2022-08-21T07:28:51;94791.44;;;24.50;100.00
9521;BME280;4798;41.574;23.734;2022-08-21T07:31:23;94788.00;;;24.53;100.00
9521;BME280;4798;41.574;23.734;2022-08-21T07:33:52;94791.31;;;24.36;100.00
9521;BME280;4798;41.574;23.734;2022-08-21T07:36:21;94784.50;;;24.52;100.00
9521;BME280;4798;41.574;23.734;2022-08-21T07:38:49;94791.66;;;24.68;100.00
9521;BME280;4798;41.574;23.734;2022-08-21T07:41:20;94779.88;;;24.53;100.00
9521;BME280;4798;41.574;23.734;2022-08-21T07:43:49;94773.88;;;24.70;100.00
9521;BME280;4798;41.574;23.734;2022-08-21T07:46:19;94757.47;;;24.56;100.00
9521;BME280;4798;41.574;23.734;2022-08-21T07:48:49;94716.53;;;24.28;100.00
9521;BME280;4798;41.574;23.734;2022-08-21T07:51:23;94777.97;;;24.53;100.00
9521;BME280;4798;41.574;23.734;2022-08-21T07:53:54;94767.22;;;23.45;100.00
9521;BME280;4798;41.574;23.734;2022-08-21T07:56:23;94763.91;;;23.55;100.00
9521;BME280;4798;41.574;23.734;2022-08-21T07:58:51;94767.91;;;23.65;100.00
9521;BME280;4798;41.574;23.734;2022-08-21T08:01:20;94772.38;;;23.80;100.00
9521;BME280;4798;41.574;23.734;2022-08-21T08:03:50;94760.53;;;23.91;100.00
9521;BME280;4798;41.574;23.734;2022-08-21T08:06:18;94761.56;;;24.43;100.00
9521;BME280;4798;41.574;23.734;2022-08-21T08:08:47;94767.91;;;24.21;100.00
9521;BME280;4798;41.574;23.734;2022-08-21T08:11:15;94741.09;;;23.86;100.00
9521;BME280;4798;41.574;23.734;2022-08-21T08:13:46;94763.50;;;24.42;100.00
9521;BME280;4798;41.574;23.734;2022-08-21T08:16:16;94762.91;;;24.26;100.00
9521;BME280;4798;41.574;23.734;2022-08-21T08:18:45;94756.28;;;23.90;100.00
9521;BME280;4798;41.574;23.734;2022-08-21T08:21:15;94710.59;;;23.07;100.00
9521;BME280;4798;41.574;23.734;2022-08-21T08:23:45;94763.72;;;23.71;100.00
9521;BME280;4798;41.574;23.734;2022-08-21T08:26:14;94751.97;;;23.60;100.00
9521;BME280;4798;41.574;23.734;2022-08-21T08:28:43;94749.75;;;23.65;100.00
9521;BME280;4798;41.574;23.734;2022-08-21T08:31:13;94708.78;;;23.96;100.00
9521;BME280;4798;41.574;23.734;2022-08-21T08:33:42;94753.59;;;24.57;100.00
9521;BME280;4798;41.574;23.734;2022-08-21T08:36:16;94757.72;;;23.84;100.00
9521;BME280;4798;41.574;23.734;2022-08-21T08:38:47;94758.69;;;23.69;100.00
9521;BME280;4798;41.574;23.734;2022-08-21T08:41:17;94693.09;;;23.01;100.00
9521;BME280;4798;41.574;23.734;2022-08-21T08:43:52;94756.13;;;23.80;100.00
9521;BME280;4798;41.574;23.734;2022-08-21T08:46:31;94756.28;;;23.64;100.00
9521;BME280;4798;41.574;23.734;2022-08-21T08:49:08;94720.06;;;23.72;100.00
9521;BME280;4798;41.574;23.734;2022-08-21T08:51:44;94738.13;;;23.94;100.00
9521;BME280;4798;41.574;23.734;2022-08-21T08:54:24;94737.97;;;23.54;100.00
9521;BME280;4798;41.574;23.734;2022-08-21T08:56:59;94747.69;;;23.32;100.00
9521;BME280;4798;41.574;23.734;2022-08-21T08:59:35;94749.75;;;23.16;100.00
9521;BME280;4798;41.574;23.734;2022-08-21T09:02:08;94661.47;;;22.33;100.00
9521;BME280;4798;41.574;23.734;2022-08-21T09:04:39;94746.19;;;22.67;100.00
9521;BME280;4798;41.574;23.734;2022-08-21T09:07:15;94755.38;;;22.62;100.00
9521;BME280;4798;41.574;23.734;2022-08-21T09:09:55;94757.50;;;22.53;100.00
9521;BME280;4798;41.574;23.734;2022-08-21T09:12:38;94749.66;;;23.13;100.00
9521;BME280;4798;41.574;23.734;2022-08-21T09:15:14;94755.78;;;23.10;100.00
9521;BME280;4798;41.574;23.734;2022-08-21T09:17:57;94750.06;;;22.89;100.00
9521;BME280;4798;41.574;23.734;2022-08-21T09:20:37;94681.16;;;22.56;100.00
9521;BME280;4798;41.574;23.734;2022-08-21T09:23:19;94731.44;;;23.06;100.00
9521;BME280;4798;41.574;23.734;2022-08-21T09:25:57;94737.19;;;23.05;100.00
9521;BME280;4798;41.574;23.734;2022-08-21T09:28:27;94738.13;;;23.38;100.00
9521;BME280;4798;41.574;23.734;2022-08-21T09:30:58;94735.59;;;23.49;100.00
9521;BME280;4798;41.574;23.734;2022-08-21T09:33:29;94737.47;;;23.00;100.00
9521;BME280;4798;41.574;23.734;2022-08-21T09:35:58;94732.91;;;23.26;100.00
9521;BME280;4798;41.574;23.734;2022-08-21T09:38:30;94736.84;;;23.55;100.00
9521;BME280;4798;41.574;23.734;2022-08-21T09:41:03;94728.44;;;23.64;100.00
9521;BME280;4798;41.574;23.734;2022-08-21T09:43:31;94713.00;;;23.64;100.00
9521;BME280;4798;41.574;23.734;2022-08-21T09:46:09;94737.66;;;23.85;100.00
9521;BME280;4798;41.574;23.734;2022-08-21T09:48:44;94732.09;;;23.75;100.00
9521;BME280;4798;41.574;23.734;2022-08-21T09:51:16;94730.25;;;23.30;100.00
9521;BME280;4798;41.574;23.734;2022-08-21T09:53:49;94651.50;;;22.83;100.00
9521;BME280;4798;41.574;23.734;2022-08-21T09:56:27;94732.00;;;23.19;100.00
9521;BME280;4798;41.574;23.734;2022-08-21T09:59:19;94728.59;;;23.48;100.00
9521;BME280;4798;41.574;23.734;2022-08-21T10:01:49;94732.50;;;23.77;100.00
9521;BME280;4798;41.574;23.734;2022-08-21T10:04:24;94726.84;;;23.59;100.00
9521;BME280;4798;41.574;23.734;2022-08-21T10:06:52;94727.63;;;23.89;100.00
9521;BME280;4798;41.574;23.734;2022-08-21T10:09:25;94735.50;;;23.98;100.00
9521;BME280;4798;41.574;23.734;2022-08-21T10:11:59;94728.78;;;23.88;100.00
9521;BME280;4798;41.574;23.734;2022-08-21T10:14:45;94705.44;;;23.47;100.00
9521;BME280;4798;41.574;23.734;2022-08-21T10:17:19;94720.16;;;23.79;100.00
9521;BME280;4798;41.574;23.734;2022-08-21T10:20:02;94667.09;;;23.42;100.00
9521;BME280;4798;41.574;23.734;2022-08-21T10:22:38;94711.63;;;23.77;100.00
9521;BME280;4798;41.574;23.734;2022-08-21T10:25:16;94718.81;;;23.66;100.00
9521;BME280;4798;41.574;23.734;2022-08-21T10:27:56;94709.34;;;23.53;100.00
9521;BME280;4798;41.574;23.734;2022-08-21T10:30:36;94709.78;;;23.55;100.00
9521;BME280;4798;41.574;23.734;2022-08-21T10:33:24;94706.00;;;23.63;100.00
9521;BME280;4798;41.574;23.734;2022-08-21T10:36:02;94701.34;;;23.34;100.00
9521;BME280;4798;41.574;23.734;2022-08-21T10:38:45;94697.25;;;23.73;100.00
9521;BME280;4798;41.574;23.734;2022-08-21T10:41:55;94690.38;;;23.79;100.00
9521;BME280;4798;41.574;23.734;2022-08-21T10:44:36;94688.25;;;24.25;100.00
9521;BME280;4798;41.574;23.734;2022-08-21T10:47:12;94692.28;;;24.42;100.00
9521;BME280;4798;41.574;23.734;2022-08-21T10:49:48;94695.00;;;24.09;100.00
9521;BME280;4798;41.574;23.734;2022-08-21T10:52:36;94693.63;;;24.58;100.00
9521;BME280;4798;41.574;23.734;2022-08-21T10:55:14;94693.44;;;24.41;100.00
9521;BME280;4798;41.574;23.734;2022-08-21T10:57:49;94681.06;;;24.80;100.00
9521;BME280;4798;41.574;23.734;2022-08-21T11:00:21;94675.88;;;25.08;100.00
9521;BME280;4798;41.574;23.734;2022-08-21T11:02:53;94678.34;;;24.80;100.00
9521;BME280;4798;41.574;23.734;2022-08-21T11:05:29;94677.53;;;24.76;100.00
9521;BME280;4798;41.574;23.734;2022-08-21T11:08:03;94679.41;;;24.69;100.00
9521;BME280;4798;41.574;23.734;2022-08-21T11:10:40;94678.19;;;25.06;100.00
9521;BME280;4798;41.574;23.734;2022-08-21T11:13:32;94676.13;;;24.89;100.00
9521;BME280;4798;41.574;23.734;2022-08-21T11:16:09;94675.84;;;24.61;100.00
9521;BME280;4798;41.574;23.734;2022-08-21T11:18:41;94669.19;;;24.55;100.00
9521;BME280;4798;41.574;23.734;2022-08-21T11:21:26;94662.63;;;24.96;100.00
9521;BME280;4798;41.574;23.734;2022-08-21T11:24:00;94658.97;;;24.78;100.00
9521;BME280;4798;41.574;23.734;2022-08-21T11:26:35;94654.84;;;24.95;100.00
9521;BME280;4798;41.574;23.734;2022-08-21T11:29:13;94653.25;;;25.45;100.00
9521;BME280;4798;41.574;23.734;2022-08-21T11:31:56;94649.94;;;25.76;100.00
9521;BME280;4798;41.574;23.734;2022-08-21T11:34:38;94649.63;;;25.88;100.00
9521;BME280;4798;41.574;23.734;2022-08-21T11:37:12;94648.88;;;26.02;100.00
9521;BME280;4798;41.574;23.734;2022-08-21T11:39:50;94647.78;;;26.13;100.00
9521;BME280;4798;41.574;23.734;2022-08-21T11:42:31;94638.28;;;25.65;100.00
9521;BME280;4798;41.574;23.734;2022-08-21T11:45:13;94639.13;;;25.86;100.00
9521;BME280;4798;41.574;23.734;2022-08-21T11:47:54;94637.28;;;25.33;100.00
9521;BME280;4798;41.574;23.734;2022-08-21T11:50:26;94631.91;;;25.43;100.00
9521;BME280;4798;41.574;23.734;2022-08-21T11:53:06;94635.50;;;25.54;100.00
9521;BME280;4798;41.574;23.734;2022-08-21T11:55:41;94624.34;;;25.77;100.00
9521;BME280;4798;41.574;23.734;2022-08-21T11:58:16;94628.22;;;25.72;100.00
9521;BME280;4798;41.574;23.734;2022-08-21T12:00:50;94628.50;;;25.53;100.00
9521;BME280;4798;41.574;23.734;2022-08-21T12:03:24;94624.97;;;25.46;100.00
9521;BME280;4798;41.574;23.734;2022-08-21T12:05:56;94631.13;;;25.39;100.00
9521;BME280;4798;41.574;23.734;2022-08-21T12:08:30;94624.88;;;25.32;100.00
9521;BME280;4798;41.574;23.734;2022-08-21T12:11:04;94631.38;;;25.20;100.00
9521;BME280;4798;41.574;23.734;2022-08-21T12:13:35;94628.72;;;25.23;100.00
9521;BME280;4798;41.574;23.734;2022-08-21T12:16:12;94626.03;;;25.31;100.00
9521;BME280;4798;41.574;23.734;2022-08-21T12:18:42;94626.94;;;25.49;100.00
9521;BME280;4798;41.574;23.734;2022-08-21T12:21:21;94630.41;;;25.46;100.00
9521;BME280;4798;41.574;23.734;2022-08-21T12:24:01;94605.16;;;25.38;100.00
9521;BME280;4798;41.574;23.734;2022-08-21T12:26:31;94631.50;;;25.34;100.00
9521;BME280;4798;41.574;23.734;2022-08-21T12:29:16;94630.41;;;25.46;100.00
9521;BME280;4798;41.574;23.734;2022-08-21T12:31:56;94632.13;;;25.13;100.00
9521;BME280;4798;41.574;23.734;2022-08-21T12:34:32;94626.03;;;25.31;100.00
9521;BME280;4798;41.574;23.734;2022-08-21T12:37:05;94626.75;;;25.17;100.00
9521;BME280;4798;41.574;23.734;2022-08-21T12:39:36;94553.31;;;24.82;100.00
9521;BME280;4798;41.574;23.734;2022-08-21T12:42:15;94563.38;;;24.85;100.00
9521;BME280;4798;41.574;23.734;2022-08-21T12:44:48;94633.34;;;25.19;100.00
9521;BME280;4798;41.574;23.734;2022-08-21T12:47:27;94633.34;;;24.72;100.00
9521;BME280;4798;41.574;23.734;2022-08-21T12:50:02;94633.56;;;24.53;100.00
9521;BME280;4798;41.574;23.734;2022-08-21T12:52:34;94640.91;;;24.12;100.00
9521;BME280;4798;41.574;23.734;2022-08-21T12:55:07;94643.63;;;24.52;100.00
9521;BME280;4798;41.574;23.734;2022-08-21T12:57:36;94634.88;;;24.26;100.00
9521;BME280;4798;41.574;23.734;2022-08-21T13:00:07;94641.00;;;24.63;100.00
9521;BME280;4798;41.574;23.734;2022-08-21T13:02:50;94653.09;;;24.69;100.00
9521;BME280;4798;41.574;23.734;2022-08-21T13:05:34;94656.88;;;24.21;100.00
9521;BME280;4798;41.574;23.734;2022-08-21T13:08:04;94658.28;;;24.08;100.00
9521;BME280;4798;41.574;23.734;2022-08-21T13:10:34;94629.00;;;24.20;100.00
9521;BME280;4798;41.574;23.734;2022-08-21T13:13:05;94644.56;;;24.71;100.00
9521;BME280;4798;41.574;23.734;2022-08-21T13:15:40;94646.84;;;24.65;100.00
9521;BME280;4798;41.574;23.734;2022-08-21T13:18:22;94650.41;;;24.32;100.00
9521;BME280;4798;41.574;23.734;2022-08-21T13:21:01;94647.69;;;23.95;100.00
9521;BME280;4798;41.574;23.734;2022-08-21T13:23:30;94651.53;;;23.94;100.00
9521;BME280;4798;41.574;23.734;2022-08-21T13:25:59;94642.25;;;23.95;100.00